Pass A Grille Beach, Florida
Current Conditions -  °F | °C
As of 5:53 PM on Tuesday 27 Jan 2015 (Local Time) from KSPG Reporting Station
Clear Clear  
Wind Chill: 65°   Ceiling: Unl
Heat Index: 65°   Visibility: 10mi
Dew Point: 53°   Wind: 12mph
Humidity: 65%   Direction: 280°W
Pressure: 29.97"   Gusts: NA
Location:  27.7355°N, 82.7065°W
Report Text: KSPG 272253Z 28010KT 10SM CLR 18/12 A2997 RMK AO2 SLP146 T01830117
Loading
Personal Weather Stations






























Interactive Weather Map New forecast layout! Learn more

10-Day Weather Forecast

Advertisements
Track Severe Weather on mobile